Davis, SD (57021)

9:30 AM CDT on September 21, 2019 (GMT -0500)
Centerville | | Change Station
Active Advisory: Flood Warning

Elev 1257 ft 43.22 °N, 96.91 °W | Updated 14 minutes ago

Mostly Cloudy
Mostly Cloudy
74.8 °F
Feels Like 75 °F
N
9
Wind Variable Wind from SSW
Gusts 15.0 mph

Today
High -- | Low -- °F
--% Chance of Precip.
Yesterday
High -- | Low -- °F
Precip. -- in
Pressure 29.74 in
Visibility 10.0 miles
Clouds Mostly Cloudy 1400 ft
Mostly Cloudy 7500 ft
Heat Index 75 °F
Dew Point 70 °F
Humidity 85%
Rainfall 0.00 in
Snow Depth Not available.
7:13 AM 7:27 PM
Waning Gibbous, 55% visible
SPECI KFSD 211424Z 19015G22KT 10SM BKN014 BKN075 24/21 A2974 RMK AO2 T02390206
Pressure 29.74 in
Visibility 10.0 miles
Clouds Mostly Cloudy 1400 ft
Mostly Cloudy 7500 ft
Heat Index 75 °F
Dew Point 70 °F
Humidity 85%
Rainfall 0.00 in
Snow Depth Not available.
7:13 AM 7:27 PM
Waning Gibbous, 55% visible
SPECI KFSD 211424Z 19015G22KT 10SM BKN014 BKN075 24/21 A2974 RMK AO2 T02390206

Get Your Daily Forecast Email!

Thanks for signing up!

Be on the lookout for a verification email in your inbox.

You'll start receiving severe weather alerts in your inbox..

×

10-Day Weather Forecast

Almanac

Astronomy

Sep. 21, 2019 Rise Set
Actual Time
Civil Twilight
Nautical Twilight
Astronomical Twilight
Moon
Length of Visible Light
Length of Day
Tomorrow will be .
, % of the Moon is Illuminated

Today's Extremes

State Highs State Lows

Community

WunderPhotos

Category 6

Welcome to Category 6. This is the collective home for Weather Underground's featured writeups by Dr. Jeff Masters (right), Bob Henson (left), Chris Burt, and other regular contributors.

Nearby

Air Quality

  Air Quality AQ Index Pollutant
Not available.

Snow Depth

Station Depth Elevation

Earthquake Activity

City Distance Mag. Time & Date
Minimum magnitude displayed is 2.5.

Coastal Water Temperatures

Place Temperature

Stations

Nearby Weather Stations

Station Location Temp. Windchill Dew Point Humidity Wind Precip. Elev Updated Type
                   

Watches & Warnings

Flood Warning
Issued: 10:31 AM CDT Sep. 20, 2019 – National Weather Service

The Flood Warning continues for
the Vermillion river near Davis.
* Until late Sunday night.
* At 07 am Friday the stage was 11.90 feet.
* Minor flooding is occurring and minor flooding is forecast.
* Flood stage is 11.00 feet.
* Forecast... the river will continue to fall to below flood stage by
Sunday September 22.
* At stages near 12.0 feet... Highway 18 west of Davis will begin
flooding, and several houses in the western parts of Davis are in
danger of flooding.


Lat... Lon 4340 9710 4340 9704 4327 9696 4318 9689
          4310 9694 4310 9703